createdAt,value
2022-10-27T00:02:18.620Z,7.49
2022-10-27T00:04:46.972Z,7.43
2022-10-27T00:07:15.246Z,7.38
2022-10-27T00:09:43.592Z,7.35
2022-10-27T00:12:11.893Z,7.31
2022-10-27T00:14:41.614Z,7.27
2022-10-27T00:17:09.895Z,7.21
2022-10-27T00:19:38.557Z,7.16
2022-10-27T00:22:06.869Z,7.13
2022-10-27T00:24:35.160Z,7.10
2022-10-27T00:27:03.836Z,7.07
2022-10-27T00:29:32.172Z,7.09
2022-10-27T00:32:00.796Z,7.08
2022-10-27T00:34:29.174Z,7.13
2022-10-27T00:36:57.487Z,7.16
2022-10-27T00:39:25.817Z,7.23
2022-10-27T00:41:54.330Z,7.27
2022-10-27T00:44:33.356Z,7.31
2022-10-27T00:47:10.547Z,7.33
2022-10-27T00:50:02.036Z,7.37
2022-10-27T00:52:42.316Z,7.44
2022-10-27T00:55:22.686Z,7.49
2022-10-27T00:57:56.277Z,7.53
2022-10-27T01:00:24.788Z,7.55
2022-10-27T01:02:59.720Z,7.55
2022-10-27T01:05:29.678Z,7.55
2022-10-27T01:08:04.052Z,7.49
2022-10-27T01:10:32.548Z,7.42
2022-10-27T01:13:01.710Z,7.38
2022-10-27T01:16:01.293Z,7.35
2022-10-27T01:18:35.516Z,7.29
2022-10-27T01:21:25.344Z,7.25
2022-10-27T01:23:56.476Z,7.17
2022-10-27T01:26:48.445Z,7.19
2022-10-27T01:29:28.751Z,7.14
2022-10-27T01:32:27.539Z,7.11
2022-10-27T01:35:25.052Z,7.06
2022-10-27T01:37:55.892Z,7.03
2022-10-27T01:40:37.272Z,7.08
2022-10-27T01:43:13.477Z,7.18
2022-10-27T01:45:43.105Z,7.24
2022-10-27T01:48:12.615Z,7.29
2022-10-27T01:51:00.674Z,7.34
2022-10-27T01:53:33.014Z,7.41
2022-10-27T01:56:07.015Z,7.42
2022-10-27T01:59:00.772Z,7.46
2022-10-27T02:01:53.961Z,7.43
2022-10-27T02:05:06.346Z,7.38
2022-10-27T02:07:50.298Z,7.41
2022-10-27T02:10:42.246Z,7.43
2022-10-27T02:13:11.431Z,7.48
2022-10-27T02:15:44.663Z,7.49
2022-10-27T02:18:35.792Z,7.50
2022-10-27T02:21:08.480Z,7.47
2022-10-27T02:23:37.310Z,7.43
2022-10-27T02:26:19.674Z,7.42
2022-10-27T02:28:59.435Z,7.42
2022-10-27T02:31:36.884Z,7.42
2022-10-27T02:34:07.046Z,7.39
2022-10-27T02:36:36.401Z,7.39
2022-10-27T02:39:04.672Z,7.37
2022-10-27T02:41:32.967Z,7.34
2022-10-27T02:44:01.293Z,7.28
2022-10-27T02:46:29.528Z,7.23
2022-10-27T02:48:57.758Z,7.21
2022-10-27T02:51:26.115Z,7.22
2022-10-27T02:53:54.599Z,7.26
2022-10-27T02:56:22.877Z,7.28
2022-10-27T02:58:51.191Z,7.28
2022-10-27T03:01:42.416Z,7.25
2022-10-27T03:04:10.967Z,7.25
2022-10-27T03:06:39.321Z,7.25
2022-10-27T03:09:07.569Z,7.22
2022-10-27T03:11:36.030Z,7.17
2022-10-27T03:14:04.273Z,7.13
2022-10-27T03:16:33.344Z,7.13
2022-10-27T03:19:01.574Z,7.09
2022-10-27T03:21:29.853Z,6.99
2022-10-27T03:23:58.172Z,6.92
2022-10-27T03:26:26.465Z,6.86
2022-10-27T03:28:54.852Z,6.81
2022-10-27T03:31:23.364Z,6.75
2022-10-27T03:33:51.587Z,6.67
2022-10-27T03:36:19.875Z,6.62
2022-10-27T03:38:48.042Z,6.61
2022-10-27T03:41:16.385Z,6.60
2022-10-27T03:43:44.662Z,6.58
2022-10-27T03:46:12.992Z,6.53
2022-10-27T03:48:41.285Z,6.49
2022-10-27T03:51:09.939Z,6.44
2022-10-27T03:53:38.328Z,6.39
2022-10-27T03:56:06.821Z,6.34
2022-10-27T03:58:35.174Z,6.28
2022-10-27T04:01:06.827Z,6.22
2022-10-27T04:03:35.231Z,6.27
2022-10-27T04:06:03.498Z,6.29
2022-10-27T04:08:31.778Z,6.27
2022-10-27T04:11:00.042Z,6.24
2022-10-27T04:13:30.708Z,6.17
2022-10-27T04:16:01.408Z,6.13
2022-10-27T04:18:29.882Z,6.10
2022-10-27T04:21:06.101Z,6.09
2022-10-27T04:23:34.378Z,6.09
2022-10-27T04:26:02.740Z,6.06
2022-10-27T04:28:30.959Z,6.00
2022-10-27T04:31:13.926Z,5.97
2022-10-27T04:33:42.223Z,5.96
2022-10-27T04:36:10.607Z,5.91
2022-10-27T04:38:38.927Z,5.86
2022-10-27T04:41:07.303Z,5.85
2022-10-27T04:43:35.619Z,5.83
2022-10-27T04:46:03.917Z,5.81
2022-10-27T04:48:32.258Z,5.78
2022-10-27T04:51:00.622Z,5.71
2022-10-27T04:53:29.001Z,5.67
2022-10-27T04:55:57.639Z,5.66
2022-10-27T04:58:26.166Z,5.66
2022-10-27T05:01:35.657Z,5.67
2022-10-27T05:04:04.184Z,5.62
2022-10-27T05:06:32.493Z,5.58
2022-10-27T05:09:00.868Z,5.58
2022-10-27T05:11:29.278Z,5.56
2022-10-27T05:13:57.587Z,5.57
2022-10-27T05:16:51.329Z,5.55
2022-10-27T05:19:19.842Z,5.56
2022-10-27T05:21:48.257Z,5.54
2022-10-27T05:24:17.038Z,5.52
2022-10-27T05:26:45.318Z,5.52
2022-10-27T05:29:13.604Z,5.53
2022-10-27T05:31:41.909Z,5.56
2022-10-27T05:34:10.161Z,5.60
2022-10-27T05:36:41.612Z,5.61
2022-10-27T05:39:12.050Z,5.63
2022-10-27T05:41:40.406Z,5.62
2022-10-27T05:44:08.787Z,5.62
2022-10-27T05:46:37.082Z,5.65
2022-10-27T05:49:05.413Z,5.68
2022-10-27T05:51:33.656Z,5.72
2022-10-27T05:54:05.103Z,5.78
2022-10-27T05:56:33.511Z,5.85
2022-10-27T05:59:01.835Z,5.89
2022-10-27T06:01:36.257Z,5.91
2022-10-27T06:04:05.065Z,5.95
2022-10-27T06:06:33.379Z,5.99
2022-10-27T06:09:01.751Z,6.05
2022-10-27T06:11:30.076Z,6.11
2022-10-27T06:13:58.358Z,6.14
2022-10-27T06:16:26.656Z,6.12
2022-10-27T06:18:55.353Z,6.15
2022-10-27T06:21:23.723Z,6.20
2022-10-27T06:23:52.070Z,6.25
2022-10-27T06:26:20.684Z,6.33
2022-10-27T06:28:49.008Z,6.48
2022-10-27T06:31:17.317Z,6.65
2022-10-27T06:33:45.529Z,6.90
2022-10-27T06:36:14.756Z,7.48
2022-10-27T06:38:44.423Z,8.29
2022-10-27T06:41:15.300Z,9.11
2022-10-27T06:43:46.159Z,10.07
2022-10-27T06:46:14.669Z,10.97
2022-10-27T06:48:43.021Z,11.83
2022-10-27T06:51:11.306Z,12.82
2022-10-27T06:53:39.676Z,13.96
2022-10-27T06:56:08.959Z,14.86
2022-10-27T06:58:40.440Z,15.63
2022-10-27T07:01:09.126Z,16.20
2022-10-27T07:03:38.735Z,16.45
2022-10-27T07:06:07.730Z,16.51
2022-10-27T07:08:36.196Z,16.71
2022-10-27T07:11:04.629Z,17.58
2022-10-27T07:13:33.119Z,18.71
2022-10-27T07:16:01.459Z,19.89
2022-10-27T07:18:29.790Z,20.94
2022-10-27T07:21:05.036Z,21.93
2022-10-27T07:23:33.361Z,22.75
2022-10-27T07:26:02.029Z,23.41
2022-10-27T07:28:30.342Z,24.14
2022-10-27T07:30:59.201Z,24.91
2022-10-27T07:33:28.409Z,25.73
2022-10-27T07:35:57.219Z,26.62
2022-10-27T07:38:25.815Z,27.43
2022-10-27T07:40:57.246Z,28.08
2022-10-27T07:43:25.777Z,28.51
2022-10-27T07:45:54.470Z,28.77
2022-10-27T07:48:23.193Z,28.96
2022-10-27T07:50:52.326Z,29.38
2022-10-27T07:53:21.051Z,29.97
2022-10-27T07:55:49.573Z,30.55
2022-10-27T07:58:18.750Z,31.04
2022-10-27T08:00:49.193Z,31.50
2022-10-27T08:03:23.674Z,31.98
2022-10-27T08:05:53.746Z,32.42
2022-10-27T08:08:22.714Z,32.70
2022-10-27T08:10:51.761Z,33.11
2022-10-27T08:13:20.717Z,33.54
2022-10-27T08:15:49.388Z,33.94
2022-10-27T08:18:18.767Z,34.30
2022-10-27T08:20:48.280Z,34.78
2022-10-27T08:23:20.791Z,35.45
2022-10-27T08:25:49.326Z,35.98
2022-10-27T08:28:18.249Z,36.38
2022-10-27T08:30:52.378Z,36.60
2022-10-27T08:33:24.257Z,36.73
2022-10-27T08:35:52.858Z,37.11
2022-10-27T08:38:21.672Z,37.55
2022-10-27T08:41:10.859Z,37.83
2022-10-27T08:44:04.747Z,38.11
2022-10-27T08:46:55.550Z,38.03
2022-10-27T08:49:29.143Z,37.80
2022-10-27T08:52:12.481Z,37.11
2022-10-27T08:54:45.370Z,35.01
2022-10-27T08:57:26.199Z,32.70
2022-10-27T08:59:57.966Z,30.74
2022-10-27T09:02:47.167Z,29.13
2022-10-27T09:05:50.885Z,27.66
2022-10-27T09:08:41.147Z,26.33
2022-10-27T09:11:22.917Z,25.20
2022-10-27T09:14:16.926Z,24.31
2022-10-27T09:16:51.637Z,23.50
2022-10-27T09:19:34.367Z,22.87
2022-10-27T09:22:05.940Z,22.22
2022-10-27T09:24:39.119Z,21.68
2022-10-27T09:27:09.490Z,21.25
2022-10-27T09:29:39.520Z,20.92
2022-10-27T09:32:13.483Z,20.61
2022-10-27T09:35:16.503Z,20.34
2022-10-27T09:37:47.905Z,20.03
2022-10-27T09:40:21.087Z,19.85
2022-10-27T09:42:54.692Z,19.74
2022-10-27T09:45:25.980Z,19.64
2022-10-27T09:48:01.568Z,19.54
2022-10-27T09:50:58.043Z,19.44
2022-10-27T09:53:36.767Z,19.25
2022-10-27T09:56:06.851Z,19.11
2022-10-27T09:58:46.581Z,19.06
2022-10-27T10:01:28.368Z,18.95
2022-10-27T10:04:07.545Z,18.88
2022-10-27T10:06:40.735Z,18.82
2022-10-27T10:09:37.056Z,18.78
2022-10-27T10:12:25.564Z,18.68
2022-10-27T10:15:18.326Z,18.60
2022-10-27T10:18:02.067Z,18.55
2022-10-27T10:23:22.980Z,18.47
2022-10-27T10:25:53.871Z,18.44
2022-10-27T10:28:35.418Z,18.33
2022-10-27T10:31:07.991Z,18.27
2022-10-27T10:33:40.334Z,18.21
2022-10-27T10:36:29.153Z,18.16
2022-10-27T10:39:00.406Z,18.12
2022-10-27T10:41:30.403Z,18.12
2022-10-27T10:44:18.513Z,18.11
2022-10-27T10:46:55.125Z,18.10
2022-10-27T10:49:37.287Z,18.07
2022-10-27T10:52:15.986Z,18.06
2022-10-27T10:54:46.315Z,18.08
2022-10-27T10:57:46.409Z,18.07
2022-10-27T11:00:20.477Z,18.09
2022-10-27T11:03:02.213Z,18.09
2022-10-27T11:05:36.683Z,18.12
2022-10-27T11:08:06.545Z,18.12
2022-10-27T11:10:39.613Z,18.11
2022-10-27T11:13:20.610Z,18.09
2022-10-27T11:16:00.115Z,18.09
2022-10-27T11:18:54.833Z,18.07
2022-10-27T11:24:32.077Z,18.13
2022-10-27T11:27:07.793Z,18.12
2022-10-27T11:29:48.586Z,18.08
2022-10-27T11:32:43.275Z,18.07
2022-10-27T11:35:19.674Z,18.05
2022-10-27T11:37:59.590Z,18.03
2022-10-27T11:40:43.747Z,18.04
2022-10-27T11:43:25.937Z,18.04
2022-10-27T11:45:57.397Z,18.04
2022-10-27T11:48:49.325Z,18.07
2022-10-27T11:51:41.484Z,18.15
2022-10-27T11:54:10.322Z,18.22
2022-10-27T11:57:38.408Z,18.26
2022-10-27T12:00:25.227Z,18.37
2022-10-27T12:03:19.097Z,18.48
2022-10-27T12:05:53.516Z,18.60
2022-10-27T12:08:29.873Z,18.65
2022-10-27T12:11:19.224Z,18.69
2022-10-27T12:13:53.655Z,18.68
2022-10-27T12:16:34.779Z,18.75
2022-10-27T12:19:19.161Z,18.82
2022-10-27T12:22:14.054Z,18.87
2022-10-27T12:24:51.580Z,18.85
2022-10-27T12:27:27.061Z,18.86
2022-10-27T12:30:14.196Z,18.93
2022-10-27T12:33:11.868Z,18.97
2022-10-27T12:36:25.479Z,19.02
2022-10-27T12:39:27.388Z,19.03
2022-10-27T12:42:09.830Z,19.01
2022-10-27T12:44:59.309Z,18.93
2022-10-27T12:47:48.183Z,18.84
2022-10-27T12:50:42.777Z,18.80
2022-10-27T12:53:36.285Z,18.74
2022-10-27T12:56:39.767Z,18.67
2022-10-27T12:59:08.189Z,18.63
2022-10-27T13:02:01.619Z,18.62
2022-10-27T13:05:03.817Z,18.61
2022-10-27T13:07:53.430Z,18.62
2022-10-27T13:10:42.632Z,18.63
2022-10-27T13:13:31.454Z,18.65
2022-10-27T13:16:21.581Z,18.66
2022-10-27T13:19:40.772Z,18.75
2022-10-27T13:22:18.368Z,18.87
2022-10-27T13:25:11.250Z,18.93
2022-10-27T13:27:50.154Z,19.04
2022-10-27T13:30:22.818Z,19.13
2022-10-27T13:32:53.478Z,19.18
2022-10-27T13:35:30.854Z,19.21
2022-10-27T13:38:19.809Z,19.21
2022-10-27T13:40:48.742Z,19.22
2022-10-27T13:46:08.973Z,19.21
2022-10-27T13:48:43.414Z,19.17
2022-10-27T13:51:49.061Z,19.10
2022-10-27T13:54:56.220Z,19.06
2022-10-27T13:58:00.028Z,18.93
2022-10-27T14:01:03.428Z,18.74
2022-10-27T14:06:09.653Z,18.51
2022-10-27T14:08:50.298Z,18.42
2022-10-27T14:11:31.772Z,18.36
2022-10-27T14:14:06.099Z,18.30
2022-10-27T14:16:41.690Z,18.24
2022-10-27T14:19:46.869Z,18.24
2022-10-27T14:25:28.092Z,18.14
2022-10-27T14:28:05.527Z,18.09
2022-10-27T14:30:35.465Z,18.02
2022-10-27T14:33:39.435Z,17.99
2022-10-27T14:39:05.827Z,17.87
2022-10-27T14:41:40.753Z,17.81
2022-10-27T14:44:17.209Z,17.74
2022-10-27T14:46:49.711Z,17.67
2022-10-27T14:49:23.835Z,17.61
2022-10-27T14:51:53.540Z,17.59
2022-10-27T14:54:22.182Z,17.58
2022-10-27T14:56:50.764Z,17.55
2022-10-27T14:59:25.030Z,17.50
2022-10-27T15:01:54.787Z,17.41
2022-10-27T15:04:26.155Z,17.30
2022-10-27T15:06:57.825Z,17.19
2022-10-27T15:09:43.208Z,17.04
2022-10-27T15:12:32.374Z,16.87
2022-10-27T15:15:05.549Z,16.68
2022-10-27T15:17:37.094Z,16.47
2022-10-27T15:20:07.265Z,16.28
2022-10-27T15:22:36.884Z,16.15
2022-10-27T15:25:10.912Z,16.02
2022-10-27T15:27:40.318Z,15.87
2022-10-27T15:30:21.136Z,15.72
2022-10-27T15:32:49.782Z,15.55
2022-10-27T15:35:32.910Z,15.38
2022-10-27T15:38:04.180Z,15.27
2022-10-27T15:40:38.040Z,15.18
2022-10-27T15:43:22.628Z,15.09
2022-10-27T15:45:52.623Z,14.96
2022-10-27T15:48:32.878Z,14.79
2022-10-27T15:51:03.008Z,14.62
2022-10-27T15:53:34.574Z,14.48
2022-10-27T15:56:23.951Z,14.31
2022-10-27T15:59:20.449Z,14.20
2022-10-27T16:01:51.680Z,14.06
2022-10-27T16:04:34.221Z,13.90
2022-10-27T16:07:15.186Z,13.75
2022-10-27T16:12:59.931Z,13.43
2022-10-27T16:15:29.164Z,13.27
2022-10-27T16:18:00.626Z,13.16
2022-10-27T16:20:34.620Z,13.06
2022-10-27T16:23:03.102Z,12.99
2022-10-27T16:25:33.775Z,12.91
2022-10-27T16:28:04.641Z,12.85
2022-10-27T16:30:33.294Z,12.78
2022-10-27T16:33:04.838Z,12.70
2022-10-27T16:35:34.682Z,12.64
2022-10-27T16:38:03.440Z,12.58
2022-10-27T16:40:34.950Z,12.48
2022-10-27T16:43:08.033Z,12.39
2022-10-27T16:45:38.542Z,12.33
2022-10-27T16:48:13.737Z,12.30
2022-10-27T16:50:45.638Z,12.24
2022-10-27T16:53:20.498Z,12.21
2022-10-27T16:56:07.761Z,12.17
2022-10-27T16:58:41.960Z,12.13
2022-10-27T17:01:13.682Z,12.07
2022-10-27T17:03:43.354Z,12.04
2022-10-27T17:06:14.935Z,11.95
2022-10-27T17:08:47.695Z,11.91
2022-10-27T17:11:18.124Z,11.88
2022-10-27T17:13:47.095Z,11.85
2022-10-27T17:16:19.671Z,11.79
2022-10-27T17:18:48.666Z,11.73
2022-10-27T17:21:18.159Z,11.69
2022-10-27T17:23:47.279Z,11.64
2022-10-27T17:26:16.832Z,11.55
2022-10-27T17:28:50.541Z,11.44
2022-10-27T17:31:22.857Z,11.38
2022-10-27T17:33:58.643Z,11.32
2022-10-27T17:36:29.121Z,11.22
2022-10-27T17:39:01.267Z,11.14
2022-10-27T17:41:31.261Z,11.13
2022-10-27T17:44:00.742Z,11.08
2022-10-27T17:46:31.615Z,11.05
2022-10-27T17:51:35.212Z,11.01
2022-10-27T17:54:09.501Z,10.97
2022-10-27T17:56:41.754Z,10.93
2022-10-27T17:59:15.368Z,10.89
2022-10-27T18:01:44.997Z,10.83
2022-10-27T18:04:14.887Z,10.78
2022-10-27T18:06:45.393Z,10.80
2022-10-27T18:09:15.680Z,10.75
2022-10-27T18:11:51.310Z,10.70
2022-10-27T18:14:24.184Z,10.67
2022-10-27T18:16:53.756Z,10.64
2022-10-27T18:19:23.661Z,10.63
2022-10-27T18:21:53.231Z,10.65
2022-10-27T18:24:22.896Z,10.64
2022-10-27T18:26:52.672Z,10.63
2022-10-27T18:29:23.927Z,10.60
2022-10-27T18:31:56.263Z,10.52
2022-10-27T18:34:26.140Z,10.45
2022-10-27T18:36:56.221Z,10.40
2022-10-27T18:39:28.359Z,10.35
2022-10-27T18:44:28.626Z,10.29
2022-10-27T18:46:58.212Z,10.28
2022-10-27T18:49:46.775Z,10.26
2022-10-27T18:52:16.860Z,10.22
2022-10-27T18:54:46.769Z,10.25
2022-10-27T18:57:16.483Z,10.25
2022-10-27T18:59:45.032Z,10.20
2022-10-27T19:02:14.503Z,10.13
2022-10-27T19:04:44.140Z,10.10
2022-10-27T19:07:15.191Z,10.10
2022-10-27T19:09:44.768Z,10.08
2022-10-27T19:12:13.755Z,10.09
2022-10-27T19:14:43.019Z,10.07
2022-10-27T19:17:13.954Z,10.03
2022-10-27T19:19:44.424Z,10.00
2022-10-27T19:22:13.666Z,10.04
2022-10-27T19:24:43.997Z,10.06
2022-10-27T19:27:13.614Z,10.08
2022-10-27T19:29:43.040Z,10.06
2022-10-27T19:32:12.683Z,10.02
2022-10-27T19:34:45.044Z,9.96
2022-10-27T19:37:18.544Z,9.93
2022-10-27T19:39:48.659Z,9.94
2022-10-27T19:42:17.926Z,9.95
2022-10-27T19:44:51.666Z,9.96
2022-10-27T19:47:22.724Z,9.96
2022-10-27T19:49:52.180Z,9.89
2022-10-27T19:52:21.904Z,9.83
2022-10-27T19:54:51.440Z,9.82
2022-10-27T19:57:21.549Z,9.86
2022-10-27T19:59:53.136Z,9.89
2022-10-27T20:02:22.338Z,9.89
2022-10-27T20:04:51.429Z,9.87
2022-10-27T20:07:21.153Z,9.81
2022-10-27T20:09:50.207Z,9.73
2022-10-27T20:12:20.148Z,9.71
2022-10-27T20:14:48.964Z,9.72
2022-10-27T20:17:19.844Z,9.75
2022-10-27T20:19:50.594Z,9.77
2022-10-27T20:22:20.023Z,9.77
2022-10-27T20:24:54.749Z,9.74
2022-10-27T20:27:24.265Z,9.68
2022-10-27T20:29:54.617Z,9.63
2022-10-27T20:32:27.413Z,9.59
2022-10-27T20:34:55.950Z,9.56
2022-10-27T20:37:24.840Z,9.57
2022-10-27T20:39:53.345Z,9.48
2022-10-27T20:42:22.118Z,9.41
2022-10-27T20:44:50.586Z,9.39
2022-10-27T20:47:19.394Z,9.41
2022-10-27T20:49:47.927Z,9.40
2022-10-27T20:52:17.774Z,9.39
2022-10-27T20:54:46.738Z,9.39
2022-10-27T20:57:15.258Z,9.38
2022-10-27T20:59:44.196Z,9.36
2022-10-27T21:02:12.853Z,9.35
2022-10-27T21:04:41.360Z,9.40
2022-10-27T21:07:09.921Z,9.39
2022-10-27T21:09:38.470Z,9.37
2022-10-27T21:12:12.862Z,9.33
2022-10-27T21:14:41.422Z,9.32
2022-10-27T21:17:10.277Z,9.27
2022-10-27T21:19:39.302Z,9.26
2022-10-27T21:22:07.807Z,9.24
2022-10-27T21:24:38.482Z,9.20
2022-10-27T21:27:06.917Z,9.20
2022-10-27T21:29:35.360Z,9.22
2022-10-27T21:32:03.807Z,9.19
2022-10-27T21:34:32.504Z,9.16
2022-10-27T21:37:00.948Z,9.16
2022-10-27T21:39:29.856Z,9.20
2022-10-27T21:41:58.319Z,9.21
2022-10-27T21:44:28.141Z,9.19
2022-10-27T21:46:56.622Z,9.20
2022-10-27T21:49:24.999Z,9.17
2022-10-27T21:51:53.522Z,9.15
2022-10-27T21:54:21.991Z,9.17
2022-10-27T21:56:50.466Z,9.18
2022-10-27T21:59:18.856Z,9.19
2022-10-27T22:01:47.283Z,9.16
2022-10-27T22:04:15.785Z,9.15
2022-10-27T22:06:44.241Z,9.09
2022-10-27T22:09:12.709Z,9.06
2022-10-27T22:11:44.303Z,9.03
2022-10-27T22:14:13.623Z,9.03
2022-10-27T22:16:42.256Z,9.02
2022-10-27T22:19:12.261Z,8.98
2022-10-27T22:21:40.860Z,8.98
2022-10-27T22:24:10.840Z,9.03
2022-10-27T22:26:43.192Z,9.04
2022-10-27T22:29:11.651Z,9.06
2022-10-27T22:31:40.126Z,9.00
2022-10-27T22:34:10.208Z,8.97
2022-10-27T22:36:38.746Z,8.97
2022-10-27T22:39:07.521Z,8.96
2022-10-27T22:41:36.168Z,8.89
2022-10-27T22:44:05.683Z,8.83
2022-10-27T22:46:35.041Z,8.85
2022-10-27T22:49:04.289Z,8.84
2022-10-27T22:51:32.988Z,8.80
2022-10-27T22:54:01.543Z,8.78
2022-10-27T22:56:33.290Z,8.73
2022-10-27T22:59:08.557Z,8.72
2022-10-27T23:01:39.979Z,8.71
2022-10-27T23:04:12.915Z,8.65
2022-10-27T23:06:42.429Z,8.56
2022-10-27T23:09:17.077Z,8.54
2022-10-27T23:11:46.217Z,8.52
2022-10-27T23:14:16.354Z,8.51
2022-10-27T23:16:45.281Z,8.53
2022-10-27T23:19:14.228Z,8.59
2022-10-27T23:21:42.878Z,8.61
2022-10-27T23:24:11.426Z,8.59
2022-10-27T23:26:40.237Z,8.60
2022-10-27T23:29:12.182Z,8.57
2022-10-27T23:31:41.017Z,8.50
2022-10-27T23:34:11.979Z,8.47
2022-10-27T23:36:41.768Z,8.46
2022-10-27T23:39:10.353Z,8.50
2022-10-27T23:41:38.921Z,8.48
2022-10-27T23:44:07.317Z,8.51
2022-10-27T23:46:35.797Z,8.52
2022-10-27T23:49:04.514Z,8.46
2022-10-27T23:51:33.991Z,8.41
2022-10-27T23:54:02.509Z,8.35
2022-10-27T23:56:31.014Z,8.31
2022-10-27T23:59:01.226Z,8.31
